createdAt,value
2023-04-14T00:00:25.203Z,3.6
2023-04-14T00:01:31.820Z,3.6
2023-04-14T00:02:39.019Z,3.6
2023-04-14T00:03:46.175Z,3.6
2023-04-14T00:04:53.176Z,3.6
2023-04-14T00:06:00.211Z,3.6
2023-04-14T00:08:13.851Z,3.6
2023-04-14T00:09:21.004Z,3.6
2023-04-14T00:10:28.149Z,3.6
2023-04-14T00:11:35.251Z,3.6
2023-04-14T00:12:41.813Z,3.6
2023-04-14T00:13:48.878Z,3.5
2023-04-14T00:14:56.001Z,3.5
2023-04-14T00:16:03.200Z,3.5
2023-04-14T00:17:10.359Z,3.5
2023-04-14T00:18:16.815Z,3.6
2023-04-14T00:19:23.882Z,3.6
2023-04-14T00:20:31.012Z,3.6
2023-04-14T00:21:38.140Z,3.6
2023-04-14T00:22:45.265Z,3.6
2023-04-14T00:23:51.796Z,3.6
2023-04-14T00:24:58.939Z,3.6
2023-04-14T00:26:06.573Z,3.6
2023-04-14T00:27:13.115Z,3.6
2023-04-14T00:28:20.242Z,3.6
2023-04-14T00:29:26.834Z,3.6
2023-04-14T00:30:33.936Z,3.6
2023-04-14T00:31:41.086Z,3.6
2023-04-14T00:32:48.207Z,3.6
2023-04-14T00:33:55.275Z,3.6
2023-04-14T00:35:01.786Z,3.6
2023-04-14T00:36:08.955Z,3.6
2023-04-14T00:37:16.023Z,3.6
2023-04-14T00:38:23.146Z,3.6
2023-04-14T00:39:30.248Z,3.6
2023-04-14T00:40:37.381Z,3.6
2023-04-14T00:41:43.910Z,3.6
2023-04-14T00:42:51.022Z,3.6
2023-04-14T00:43:58.166Z,3.6
2023-04-14T00:45:05.251Z,3.6
2023-04-14T00:46:11.862Z,3.6
2023-04-14T00:47:19.081Z,3.6
2023-04-14T00:48:26.161Z,3.6
2023-04-14T00:49:33.103Z,3.6
2023-04-14T00:50:40.250Z,3.6
2023-04-14T00:51:46.876Z,3.7
2023-04-14T00:52:53.927Z,3.7
2023-04-14T00:54:01.091Z,3.7
2023-04-14T00:55:08.144Z,3.7
2023-04-14T00:56:15.271Z,3.7
2023-04-14T00:57:21.845Z,3.7
2023-04-14T00:58:29.032Z,3.8
2023-04-14T00:59:36.086Z,3.8
2023-04-14T01:00:43.187Z,3.9
2023-04-14T01:01:50.336Z,3.9
2023-04-14T01:04:04.112Z,3.9
2023-04-14T01:05:11.188Z,3.9
2023-04-14T01:06:18.211Z,3.9
2023-04-14T01:07:25.284Z,3.9
2023-04-14T01:08:31.910Z,3.9
2023-04-14T01:09:39.001Z,3.9
2023-04-14T01:11:53.129Z,3.9
2023-04-14T01:13:00.288Z,3.9
2023-04-14T01:14:06.909Z,3.9
2023-04-14T01:15:14.013Z,3.9
2023-04-14T01:16:21.163Z,3.9
2023-04-14T01:17:28.236Z,3.9
2023-04-14T01:18:35.378Z,3.9
2023-04-14T01:19:41.851Z,3.9
2023-04-14T01:20:49.028Z,4
2023-04-14T01:21:56.077Z,4
2023-04-14T01:23:03.187Z,4
2023-04-14T01:24:10.346Z,4
2023-04-14T01:25:16.880Z,4
2023-04-14T01:26:23.988Z,4
2023-04-14T01:27:31.056Z,4
2023-04-14T01:28:38.243Z,4
2023-04-14T01:29:45.836Z,4
2023-04-14T01:30:51.841Z,4
2023-04-14T01:32:01.217Z,4
2023-04-14T01:33:06.116Z,4
2023-04-14T01:34:13.182Z,4
2023-04-14T01:35:20.297Z,4
2023-04-14T01:36:26.946Z,4
2023-04-14T01:37:34.027Z,4
2023-04-14T01:38:41.167Z,4
2023-04-14T01:39:48.261Z,4
2023-04-14T01:40:54.936Z,4
2023-04-14T01:42:01.903Z,4
2023-04-14T01:43:09.068Z,4
2023-04-14T01:44:16.186Z,4
2023-04-14T01:45:23.246Z,4
2023-04-14T01:46:30.363Z,4
2023-04-14T01:47:36.945Z,4
2023-04-14T01:48:44.076Z,4
2023-04-14T01:49:51.088Z,4.1
2023-04-14T01:50:58.229Z,4
2023-04-14T01:52:05.327Z,4
2023-04-14T01:53:11.921Z,4.1
2023-04-14T01:54:19.154Z,4
2023-04-14T01:55:26.120Z,4
2023-04-14T01:56:33.252Z,4
2023-04-14T01:57:40.321Z,4.1
2023-04-14T01:58:46.945Z,4
2023-04-14T01:59:54.059Z,4
2023-04-14T02:01:01.177Z,4
2023-04-14T02:02:08.289Z,4
2023-04-14T02:03:14.936Z,4
2023-04-14T02:04:22.135Z,4
2023-04-14T02:05:29.107Z,3.9
2023-04-14T02:06:36.126Z,4
2023-04-14T02:07:43.264Z,3.9
2023-04-14T02:08:49.895Z,3.9
2023-04-14T02:09:56.988Z,3.9
2023-04-14T02:11:04.031Z,3.9
2023-04-14T02:12:11.178Z,3.9
2023-04-14T02:13:18.342Z,3.8
2023-04-14T02:15:31.920Z,3.8
2023-04-14T02:16:39.224Z,3.8
2023-04-14T02:17:46.235Z,3.7
2023-04-14T02:18:53.257Z,3.7
2023-04-14T02:19:59.889Z,3.7
2023-04-14T02:21:06.953Z,3.7
2023-04-14T02:22:14.021Z,3.6
2023-04-14T02:23:21.175Z,3.6
2023-04-14T02:24:28.322Z,3.6
2023-04-14T02:25:34.856Z,3.6
2023-04-14T02:26:41.959Z,3.6
2023-04-14T02:27:49.098Z,3.6
2023-04-14T02:28:56.251Z,3.6
2023-04-14T02:30:03.293Z,3.6
2023-04-14T02:32:16.967Z,3.5
2023-04-14T02:33:24.635Z,3.5
2023-04-14T02:34:31.169Z,3.5
2023-04-14T02:35:38.279Z,3.5
2023-04-14T02:36:44.930Z,3.5
2023-04-14T02:37:51.939Z,3.5
2023-04-14T02:38:59.402Z,3.4
2023-04-14T02:40:06.293Z,3.4
2023-04-14T02:41:13.284Z,3.4
2023-04-14T02:42:19.917Z,3.4
2023-04-14T02:43:26.962Z,3.4
2023-04-14T02:44:34.085Z,3.4
2023-04-14T02:45:41.208Z,3.4
2023-04-14T02:46:48.340Z,3.4
2023-04-14T02:47:54.979Z,3.4
2023-04-14T02:49:02.329Z,3.4
2023-04-14T02:50:09.129Z,3.4
2023-04-14T02:51:16.230Z,3.4
2023-04-14T02:52:23.305Z,3.4
2023-04-14T02:53:29.890Z,3.4
2023-04-14T02:54:37.017Z,3.4
2023-04-14T02:55:44.116Z,3.4
2023-04-14T02:56:51.231Z,3.4
2023-04-14T02:57:58.329Z,3.4
2023-04-14T02:59:04.997Z,3.4
2023-04-14T03:00:11.974Z,3.5
2023-04-14T03:01:19.172Z,3.5
2023-04-14T03:02:26.469Z,3.5
2023-04-14T03:03:33.366Z,3.5
2023-04-14T03:04:39.971Z,3.5
2023-04-14T03:05:47.176Z,3.5
2023-04-14T03:06:54.154Z,3.5
2023-04-14T03:08:01.725Z,3.5
2023-04-14T03:09:08.394Z,3.5
2023-04-14T03:10:14.956Z,3.4
2023-04-14T03:11:22.050Z,3.4
2023-04-14T03:12:29.172Z,3.4
2023-04-14T03:13:36.220Z,3.4
2023-04-14T03:14:43.352Z,3.4
2023-04-14T03:15:50.006Z,3.4
2023-04-14T03:16:57.057Z,3.4
2023-04-14T03:19:11.261Z,3.5
2023-04-14T03:20:18.372Z,3.5
2023-04-14T03:21:24.947Z,3.5
2023-04-14T03:22:32.021Z,3.5
2023-04-14T03:23:39.222Z,3.5
2023-04-14T03:24:46.289Z,3.5
2023-04-14T03:25:53.359Z,3.5
2023-04-14T03:26:59.969Z,3.5
2023-04-14T03:28:07.113Z,3.5
2023-04-14T03:29:14.164Z,3.5
2023-04-14T03:30:21.259Z,3.6
2023-04-14T03:31:28.418Z,3.6
2023-04-14T03:32:35.037Z,3.6
2023-04-14T03:33:42.109Z,3.6
2023-04-14T03:34:49.167Z,3.6
2023-04-14T03:35:56.278Z,3.6
2023-04-14T03:37:03.435Z,3.6
2023-04-14T03:38:09.945Z,3.6
2023-04-14T03:39:17.115Z,3.6
2023-04-14T03:40:24.157Z,3.6
2023-04-14T03:41:31.237Z,3.6
2023-04-14T03:42:38.410Z,3.6
2023-04-14T03:43:45.037Z,3.6
2023-04-14T03:44:52.104Z,3.6
2023-04-14T03:45:59.162Z,3.6
2023-04-14T03:47:06.312Z,3.6
2023-04-14T03:48:12.878Z,3.6
2023-04-14T03:49:19.947Z,3.6
2023-04-14T03:50:27.087Z,3.6
2023-04-14T03:51:34.201Z,3.6
2023-04-14T03:52:41.309Z,3.6
2023-04-14T03:53:48.430Z,3.5
2023-04-14T03:54:54.995Z,3.5
2023-04-14T03:56:02.050Z,3.5
2023-04-14T03:57:09.217Z,3.5
2023-04-14T03:58:16.331Z,3.5
2023-04-14T04:00:30.019Z,3.5
2023-04-14T04:01:37.123Z,3.4
2023-04-14T04:02:44.284Z,3.5
2023-04-14T04:03:51.541Z,3.5
2023-04-14T04:04:57.933Z,3.5
2023-04-14T04:06:05.031Z,3.5
2023-04-14T04:07:12.079Z,3.5
2023-04-14T04:08:19.275Z,3.5
2023-04-14T04:09:26.336Z,3.5
2023-04-14T04:10:32.878Z,3.5
2023-04-14T04:11:40.043Z,3.5
2023-04-14T04:12:47.090Z,3.6
2023-04-14T04:13:54.238Z,3.5
2023-04-14T04:15:01.303Z,3.5
2023-04-14T04:16:07.933Z,3.5
2023-04-14T04:17:15.074Z,3.6
2023-04-14T04:18:22.141Z,3.5
2023-04-14T04:19:29.280Z,3.5
2023-04-14T04:20:36.339Z,3.5
2023-04-14T04:22:50.009Z,3.6
2023-04-14T04:23:57.173Z,3.6
2023-04-14T04:25:04.282Z,3.6
2023-04-14T04:26:11.336Z,3.6
2023-04-14T04:27:27.666Z,3.6
2023-04-14T04:28:25.060Z,3.6
2023-04-14T04:29:32.188Z,3.7
2023-04-14T04:30:39.248Z,3.7
2023-04-14T04:31:46.415Z,3.7
2023-04-14T04:32:53.031Z,3.7
2023-04-14T04:34:00.065Z,3.7
2023-04-14T04:35:07.188Z,3.7
2023-04-14T04:36:14.776Z,3.7
2023-04-14T04:37:21.343Z,3.7
2023-04-14T04:38:27.972Z,3.8
2023-04-14T04:39:35.072Z,3.7
2023-04-14T04:40:42.624Z,3.8
2023-04-14T04:41:49.299Z,3.8
2023-04-14T04:42:56.404Z,3.8
2023-04-14T04:44:02.927Z,3.8
2023-04-14T04:45:10.097Z,3.8
2023-04-14T04:46:17.204Z,3.9
2023-04-14T04:47:24.342Z,3.9
2023-04-14T04:48:31.419Z,3.9
2023-04-14T04:49:37.991Z,3.9
2023-04-14T04:50:45.043Z,3.9
2023-04-14T04:51:52.261Z,3.9
2023-04-14T04:52:59.256Z,3.9
2023-04-14T04:54:06.406Z,3.9
2023-04-14T04:55:13.220Z,3.9
2023-04-14T04:56:20.108Z,3.9
2023-04-14T04:57:27.214Z,3.9
2023-04-14T04:58:34.280Z,3.9
2023-04-14T04:59:41.346Z,3.9
2023-04-14T05:00:47.950Z,3.9
2023-04-14T05:01:55.162Z,3.9
2023-04-14T05:03:02.254Z,3.9
2023-04-14T05:04:09.402Z,3.9
2023-04-14T05:05:16.406Z,3.9
2023-04-14T05:06:22.978Z,3.9
2023-04-14T05:07:30.070Z,3.9
2023-04-14T05:08:37.232Z,3.9
2023-04-14T05:09:44.300Z,3.9
2023-04-14T05:10:51.387Z,3.9
2023-04-14T05:12:01.079Z,3.9
2023-04-14T05:13:05.148Z,3.9
2023-04-14T05:14:12.242Z,3.8
2023-04-14T05:15:19.313Z,3.8
2023-04-14T05:16:26.443Z,3.8
2023-04-14T05:17:32.982Z,3.8
2023-04-14T05:18:40.190Z,3.8
2023-04-14T05:19:47.252Z,3.8
2023-04-14T05:20:54.328Z,3.8
2023-04-14T05:22:01.390Z,3.8
2023-04-14T05:23:08.014Z,3.8
2023-04-14T05:24:15.135Z,3.8
2023-04-14T05:26:44.501Z,3.8
2023-04-14T05:28:43.157Z,3.8
2023-04-14T05:29:50.109Z,3.8
2023-04-14T05:30:57.921Z,3.8
2023-04-14T05:32:04.313Z,3.8
2023-04-14T05:33:10.962Z,3.8
2023-04-14T05:34:18.051Z,3.8
2023-04-14T05:35:25.172Z,3.8
2023-04-14T05:36:32.223Z,3.8
2023-04-14T05:37:39.344Z,3.8
2023-04-14T05:38:45.953Z,3.8
2023-04-14T05:39:53.124Z,3.8
2023-04-14T05:41:00.163Z,3.8
2023-04-14T05:42:07.260Z,3.8
2023-04-14T05:43:14.344Z,3.8
2023-04-14T05:44:21.407Z,3.8
2023-04-14T05:45:28.061Z,3.8
2023-04-14T05:46:35.143Z,3.8
2023-04-14T05:47:42.254Z,3.8
2023-04-14T05:48:49.404Z,3.9
2023-04-14T05:49:55.936Z,3.8
2023-04-14T05:51:03.029Z,3.9
2023-04-14T05:52:10.098Z,3.9
2023-04-14T05:53:17.231Z,3.9
2023-04-14T05:54:24.404Z,3.9
2023-04-14T05:55:30.934Z,3.9
2023-04-14T05:56:38.053Z,3.9
2023-04-14T05:57:45.171Z,3.9
2023-04-14T05:58:52.211Z,3.9
2023-04-14T05:59:59.373Z,3.9
2023-04-14T06:01:05.982Z,3.9
2023-04-14T06:02:13.162Z,3.9
2023-04-14T06:03:20.451Z,3.9
2023-04-14T06:04:27.950Z,3.9
2023-04-14T06:05:34.388Z,3.9
2023-04-14T06:06:40.947Z,4
2023-04-14T06:07:48.070Z,4
2023-04-14T06:08:55.178Z,4
2023-04-14T06:10:02.301Z,4
2023-04-14T06:11:09.385Z,4
2023-04-14T06:12:15.977Z,4.1
2023-04-14T06:13:23.050Z,4.1
2023-04-14T06:14:30.249Z,4.1
2023-04-14T06:15:37.274Z,4.2
2023-04-14T06:16:44.433Z,4.3
2023-04-14T06:17:51.030Z,4.3
2023-04-14T06:18:58.374Z,4.3
2023-04-14T06:20:05.209Z,4.4
2023-04-14T06:21:12.264Z,4.4
2023-04-14T06:22:19.389Z,4.5
2023-04-14T06:23:25.992Z,4.5
2023-04-14T06:24:33.177Z,4.6
2023-04-14T06:25:40.221Z,4.6
2023-04-14T06:26:47.312Z,4.7
2023-04-14T06:27:54.534Z,4.7
2023-04-14T06:30:08.121Z,4.7
2023-04-14T06:31:15.227Z,4.8
2023-04-14T06:32:22.344Z,4.9
2023-04-14T06:33:29.407Z,4.9
2023-04-14T06:34:36.047Z,4.9
2023-04-14T06:35:43.085Z,5
2023-04-14T06:36:50.196Z,5.1
2023-04-14T06:37:57.309Z,5.1
2023-04-14T06:39:04.561Z,5.3
2023-04-14T06:40:10.976Z,5.3
2023-04-14T06:41:18.148Z,5.4
2023-04-14T06:42:25.220Z,5.5
2023-04-14T06:43:32.297Z,5.6
2023-04-14T06:44:39.475Z,5.6
2023-04-14T06:45:46.098Z,5.7
2023-04-14T06:46:53.119Z,5.8
2023-04-14T06:48:00.768Z,5.8
2023-04-14T06:49:07.344Z,5.9
2023-04-14T06:50:14.391Z,5.9
2023-04-14T06:51:21.006Z,6
2023-04-14T06:52:28.183Z,6
2023-04-14T06:53:35.231Z,6.1
2023-04-14T06:54:42.417Z,6.1
2023-04-14T06:56:56.061Z,6.3
2023-04-14T06:58:03.149Z,6.3
2023-04-14T06:59:10.272Z,6.3
2023-04-14T07:00:17.359Z,6.3
2023-04-14T07:01:24.031Z,6.4
2023-04-14T07:02:31.199Z,6.4
2023-04-14T07:03:38.208Z,6.4
2023-04-14T07:04:45.423Z,6.5
2023-04-14T07:05:52.457Z,6.5
2023-04-14T07:06:59.463Z,6.6
2023-04-14T07:08:05.991Z,6.6
2023-04-14T07:09:13.153Z,6.7
2023-04-14T07:10:20.282Z,6.7
2023-04-14T07:11:27.345Z,6.8
2023-04-14T07:12:33.895Z,6.8
2023-04-14T07:13:41.045Z,6.9
2023-04-14T07:14:48.189Z,7
2023-04-14T07:15:55.285Z,7.1
2023-04-14T07:17:02.345Z,7.1
2023-04-14T07:18:09.000Z,7.2
2023-04-14T07:19:16.091Z,7.3
2023-04-14T07:20:23.131Z,7.4
2023-04-14T07:21:30.244Z,7.5
2023-04-14T07:22:37.390Z,7.7
2023-04-14T07:23:44.473Z,7.7
2023-04-14T07:24:51.064Z,7.8
2023-04-14T07:25:58.184Z,7.8
2023-04-14T07:27:05.290Z,7.9
2023-04-14T07:28:12.368Z,8
2023-04-14T07:29:18.949Z,8
2023-04-14T07:30:26.228Z,8
2023-04-14T07:31:33.197Z,8
2023-04-14T07:33:47.427Z,8
2023-04-14T07:34:54.045Z,8
2023-04-14T07:36:03.091Z,8
2023-04-14T07:37:08.248Z,7.9
2023-04-14T07:38:15.325Z,7.9
2023-04-14T07:39:22.958Z,7.9
2023-04-14T07:40:28.967Z,7.9
2023-04-14T07:41:36.093Z,7.9
2023-04-14T07:42:43.171Z,7.9
2023-04-14T07:43:50.345Z,7.8
2023-04-14T07:44:57.387Z,7.8
2023-04-14T07:46:03.980Z,7.7
2023-04-14T07:47:11.076Z,7.7
2023-04-14T07:48:18.197Z,7.7
2023-04-14T07:49:25.309Z,7.7
2023-04-14T07:50:32.399Z,7.7
2023-04-14T07:51:39.528Z,7.6
2023-04-14T07:52:46.091Z,7.6
2023-04-14T07:53:53.260Z,7.6
2023-04-14T07:55:00.353Z,7.5
2023-04-14T07:56:07.407Z,7.5
2023-04-14T07:57:14.004Z,7.6
2023-04-14T07:59:28.279Z,7.6
2023-04-14T08:00:35.335Z,7.6
2023-04-14T08:01:42.525Z,7.6
2023-04-14T08:02:49.189Z,7.6
2023-04-14T08:03:56.420Z,7.6
2023-04-14T08:05:03.274Z,7.6
2023-04-14T08:06:10.317Z,7.6
2023-04-14T08:07:17.451Z,7.6
2023-04-14T08:08:23.999Z,7.6
2023-04-14T08:09:31.138Z,7.7
2023-04-14T08:10:38.216Z,7.6
2023-04-14T08:11:45.310Z,7.7
2023-04-14T08:12:52.392Z,7.7
2023-04-14T08:13:59.117Z,7.7
2023-04-14T08:15:06.153Z,7.8
2023-04-14T08:16:13.239Z,7.8
2023-04-14T08:17:20.408Z,7.9
2023-04-14T08:18:27.552Z,7.9
2023-04-14T08:19:33.982Z,8
2023-04-14T08:20:41.110Z,8
2023-04-14T08:21:48.245Z,8
2023-04-14T08:22:55.355Z,8
2023-04-14T08:25:09.115Z,8
2023-04-14T08:26:16.141Z,8
2023-04-14T08:27:23.223Z,8
2023-04-14T08:28:30.343Z,8.1
2023-04-14T08:29:36.952Z,8.1
2023-04-14T08:30:44.082Z,8.1
2023-04-14T08:31:51.177Z,8.1
2023-04-14T08:32:59.260Z,8.1
2023-04-14T08:34:05.380Z,8.1
2023-04-14T08:35:39.046Z,8.2
2023-04-14T08:37:26.158Z,8.3
2023-04-14T08:38:33.268Z,8.3
2023-04-14T08:39:40.422Z,8.3
2023-04-14T08:40:46.947Z,8.2
2023-04-14T08:41:54.047Z,8.2
2023-04-14T08:43:01.249Z,8.3
2023-04-14T08:44:08.257Z,8.3
2023-04-14T08:45:15.482Z,8.3
2023-04-14T08:46:22.051Z,8.5
2023-04-14T08:47:29.111Z,8.5
2023-04-14T08:48:36.203Z,8.5
2023-04-14T08:49:43.349Z,8.5
2023-04-14T08:50:50.377Z,8.6
2023-04-14T08:51:56.973Z,8.6
2023-04-14T08:53:04.073Z,8.6
2023-04-14T08:54:11.199Z,8.5
2023-04-14T08:55:18.828Z,8.5
2023-04-14T08:56:25.396Z,8.5
2023-04-14T08:57:31.977Z,8.5
2023-04-14T08:58:39.078Z,8.4
2023-04-14T08:59:46.271Z,8.4
2023-04-14T09:00:53.892Z,8.4
2023-04-14T09:02:01.391Z,8.4
2023-04-14T09:03:07.104Z,8.4
2023-04-14T09:04:14.337Z,8.4
2023-04-14T09:05:21.180Z,8.4
2023-04-14T09:06:28.290Z,8.4
2023-04-14T09:07:35.401Z,8.4
2023-04-14T09:08:41.952Z,8.5
2023-04-14T09:09:49.150Z,8.7
2023-04-14T09:10:56.203Z,8.8
2023-04-14T09:12:03.308Z,8.9
2023-04-14T09:13:10.379Z,8.9
2023-04-14T09:14:17.009Z,8.9
2023-04-14T09:15:24.094Z,8.9
2023-04-14T09:16:31.211Z,8.8
2023-04-14T09:17:38.350Z,8.8
2023-04-14T09:18:47.529Z,8.8
2023-04-14T09:20:37.961Z,8.8
2023-04-14T09:21:50.318Z,8.8
2023-04-14T09:22:06.301Z,8.8
2023-04-14T09:23:13.310Z,8.8
2023-04-14T09:24:20.469Z,8.8
2023-04-14T09:25:27.010Z,8.8
2023-04-14T09:26:34.148Z,8.8
2023-04-14T09:27:41.187Z,8.8
2023-04-14T09:28:48.398Z,8.9
2023-04-14T09:29:55.463Z,9
2023-04-14T09:31:02.102Z,9.3
2023-04-14T09:32:09.138Z,9.4
2023-04-14T09:33:16.250Z,9.4
2023-04-14T09:34:23.368Z,9.4
2023-04-14T09:35:30.429Z,9.4
2023-04-14T09:36:37.025Z,9.4
2023-04-14T09:37:44.096Z,9.5
2023-04-14T09:38:51.208Z,9.4
2023-04-14T09:41:04.934Z,9.6
2023-04-14T09:42:12.128Z,9.9
2023-04-14T09:43:19.139Z,9.9
2023-04-14T09:44:26.331Z,9.9
2023-04-14T09:45:33.348Z,9.9
2023-04-14T09:46:40.183Z,9.9
2023-04-14T09:47:47.127Z,9.8
2023-04-14T09:48:54.319Z,9.8
2023-04-14T09:50:01.254Z,9.7
2023-04-14T09:51:08.355Z,9.7
2023-04-14T09:53:22.036Z,9.6
2023-04-14T09:54:29.200Z,9.6
2023-04-14T09:55:36.306Z,9.5
2023-04-14T09:56:43.383Z,9.5
2023-04-14T09:57:49.991Z,9.6
2023-04-14T09:58:57.597Z,9.6
2023-04-14T10:00:04.204Z,9.6
2023-04-14T10:01:11.266Z,9.5
2023-04-14T10:02:18.528Z,9.4
2023-04-14T10:03:25.607Z,9.3
2023-04-14T10:04:32.174Z,9.3
2023-04-14T10:05:39.168Z,9.3
2023-04-14T10:06:46.315Z,9.2
2023-04-14T10:07:53.383Z,9.2
2023-04-14T10:09:00.277Z,9.1
2023-04-14T10:10:07.158Z,9.1
2023-04-14T10:11:14.183Z,9
2023-04-14T10:12:21.277Z,9
2023-04-14T10:13:28.419Z,9.1
2023-04-14T10:14:35.012Z,9.3
2023-04-14T10:15:42.134Z,9.4
2023-04-14T10:16:49.217Z,9.7
2023-04-14T10:17:56.312Z,9.8
2023-04-14T10:19:04.114Z,10
2023-04-14T10:20:09.982Z,10.2
2023-04-14T10:21:17.093Z,10.3
2023-04-14T10:22:24.221Z,10.4
2023-04-14T10:23:31.339Z,10.5
2023-04-14T10:24:38.517Z,10.5
2023-04-14T10:25:45.002Z,10.5
2023-04-14T10:26:52.144Z,10.4
2023-04-14T10:27:59.237Z,10.4
2023-04-14T10:29:06.832Z,10.4
2023-04-14T10:30:13.414Z,10.5
2023-04-14T10:31:20.146Z,10.4
2023-04-14T10:32:27.172Z,10.4
2023-04-14T10:33:34.223Z,10.3
2023-04-14T10:34:42.751Z,10.3
2023-04-14T10:35:48.383Z,10.4
2023-04-14T10:36:55.007Z,10.4
2023-04-14T10:38:02.104Z,10.4
2023-04-14T10:39:09.279Z,10.5
2023-04-14T10:40:16.304Z,10.5
2023-04-14T10:41:23.475Z,10.7
2023-04-14T10:42:30.034Z,10.8
2023-04-14T10:44:44.256Z,11
2023-04-14T10:45:51.298Z,11
2023-04-14T10:46:58.487Z,11
2023-04-14T10:48:05.046Z,11
2023-04-14T10:49:12.220Z,11.1
2023-04-14T10:50:19.436Z,11.1
2023-04-14T10:51:26.349Z,11.3
2023-04-14T10:52:33.431Z,11.3
2023-04-14T10:53:40.057Z,11.3
2023-04-14T10:54:47.143Z,11.4
2023-04-14T10:55:54.204Z,11.3
2023-04-14T10:57:01.345Z,11.3
2023-04-14T10:58:07.952Z,11.2
2023-04-14T10:59:15.103Z,11.1
2023-04-14T11:00:22.183Z,11
2023-04-14T11:01:29.452Z,11
2023-04-14T11:02:36.489Z,11
2023-04-14T11:03:43.047Z,11
2023-04-14T11:04:50.068Z,11
2023-04-14T11:05:57.210Z,11
2023-04-14T11:07:04.282Z,11
2023-04-14T11:08:11.330Z,11
2023-04-14T11:09:18.007Z,11
2023-04-14T11:10:25.052Z,11
2023-04-14T11:11:32.146Z,11
2023-04-14T11:12:39.290Z,11
2023-04-14T11:13:46.356Z,10.9
2023-04-14T11:14:52.988Z,10.8
2023-04-14T11:16:00.077Z,10.8
2023-04-14T11:17:07.219Z,10.9
2023-04-14T11:18:14.498Z,10.9
2023-04-14T11:19:21.340Z,10.8
2023-04-14T11:21:35.090Z,10.7
2023-04-14T11:22:42.132Z,10.6
2023-04-14T11:23:49.306Z,10.6
2023-04-14T11:24:56.414Z,10.5
2023-04-14T11:26:02.951Z,10.4
2023-04-14T11:27:10.075Z,10.5
2023-04-14T11:28:17.180Z,10.5
2023-04-14T11:29:24.254Z,10.6
2023-04-14T11:30:31.365Z,10.5
2023-04-14T11:31:38.073Z,10.5
2023-04-14T11:32:45.130Z,10.5
2023-04-14T11:33:52.145Z,10.6
2023-04-14T11:34:59.336Z,10.5
2023-04-14T11:36:06.449Z,10.4
2023-04-14T11:37:12.956Z,10.4
2023-04-14T11:38:20.126Z,10.5
2023-04-14T11:39:27.247Z,10.6
2023-04-14T11:40:34.261Z,10.7
2023-04-14T11:41:41.420Z,10.7
2023-04-14T11:42:48.050Z,10.7
2023-04-14T11:43:55.086Z,10.7
2023-04-14T11:45:02.268Z,10.7
2023-04-14T11:46:09.371Z,10.7
2023-04-14T11:48:22.990Z,10.6
2023-04-14T11:49:30.141Z,10.5
2023-04-14T11:50:37.197Z,10.5
2023-04-14T11:51:44.362Z,10.5
2023-04-14T11:52:51.404Z,10.6
2023-04-14T11:53:58.048Z,10.5
2023-04-14T11:55:05.166Z,10.6
2023-04-14T11:56:12.200Z,10.5
2023-04-14T11:57:19.356Z,10.5
2023-04-14T11:58:26.461Z,10.5
2023-04-14T11:59:33.063Z,10.6
2023-04-14T12:00:40.150Z,10.6
2023-04-14T12:01:47.218Z,10.6
2023-04-14T12:02:54.425Z,10.6
2023-04-14T12:04:01.626Z,10.6
2023-04-14T12:05:08.135Z,10.7
2023-04-14T12:06:15.675Z,10.7
2023-04-14T12:07:22.245Z,10.7
2023-04-14T12:08:29.416Z,10.7
2023-04-14T12:09:35.935Z,10.8
2023-04-14T12:10:43.037Z,10.9
2023-04-14T12:11:50.157Z,10.8
2023-04-14T12:12:57.234Z,10.9
2023-04-14T12:14:04.372Z,10.9
2023-04-14T12:15:10.954Z,10.8
2023-04-14T12:16:18.078Z,10.9
2023-04-14T12:17:25.231Z,10.8
2023-04-14T12:18:32.240Z,10.9
2023-04-14T12:19:39.446Z,10.9
2023-04-14T12:20:45.986Z,10.9
2023-04-14T12:21:53.052Z,11
2023-04-14T12:23:00.205Z,11
2023-04-14T12:24:07.261Z,11
2023-04-14T12:25:14.376Z,11
2023-04-14T12:26:21.028Z,11
2023-04-14T12:27:28.091Z,11
2023-04-14T12:28:35.178Z,11
2023-04-14T12:29:42.266Z,11
2023-04-14T12:30:49.378Z,11
2023-04-14T12:31:55.995Z,11
2023-04-14T12:33:03.147Z,11
2023-04-14T12:34:10.149Z,11
2023-04-14T12:35:17.353Z,11
2023-04-14T12:36:29.858Z,11
2023-04-14T12:37:30.925Z,11
2023-04-14T12:38:38.114Z,11
2023-04-14T12:39:45.162Z,10.9
2023-04-14T12:40:52.284Z,10.9
2023-04-14T12:42:01.254Z,10.9
2023-04-14T12:43:05.963Z,10.8
2023-04-14T12:44:13.057Z,10.8
2023-04-14T12:45:20.244Z,10.9
2023-04-14T12:46:27.347Z,10.9
2023-04-14T12:47:34.457Z,10.9
2023-04-14T12:49:48.144Z,10.9
2023-04-14T12:52:02.322Z,10.9
2023-04-14T12:53:09.453Z,10.9
2023-04-14T12:54:15.985Z,10.9
2023-04-14T12:55:23.098Z,10.9
2023-04-14T12:56:30.247Z,11
2023-04-14T12:57:37.321Z,11
2023-04-14T12:58:44.419Z,10.9
2023-04-14T12:59:50.987Z,11
2023-04-14T13:00:58.144Z,10.9
2023-04-14T13:02:05.443Z,10.9
2023-04-14T13:03:12.385Z,11
2023-04-14T13:04:19.628Z,10.9
2023-04-14T13:05:26.014Z,10.9
2023-04-14T13:06:33.065Z,10.7
2023-04-14T13:07:40.240Z,10.7
2023-04-14T13:08:47.518Z,10.6
2023-04-14T13:09:54.474Z,10.6
2023-04-14T13:11:01.005Z,10.5
2023-04-14T13:12:08.074Z,10.4
2023-04-14T13:13:15.252Z,10.4
2023-04-14T13:14:22.343Z,10.3
2023-04-14T13:16:14.122Z,10.3
2023-04-14T13:16:36.098Z,10.3
2023-04-14T13:17:43.108Z,10.4
2023-04-14T13:18:50.244Z,10.4
2023-04-14T13:19:57.367Z,10.5
2023-04-14T13:21:04.445Z,10.5
2023-04-14T13:22:11.023Z,10.6
2023-04-14T13:23:18.138Z,10.7
2023-04-14T13:24:25.264Z,10.7
2023-04-14T13:25:32.300Z,10.8
2023-04-14T13:26:39.436Z,10.9
2023-04-14T13:27:46.028Z,10.9
2023-04-14T13:28:53.198Z,10.8
2023-04-14T13:30:00.230Z,10.9
2023-04-14T13:31:07.552Z,10.8
2023-04-14T13:32:14.006Z,10.7
2023-04-14T13:33:21.052Z,10.7
2023-04-14T13:34:28.258Z,10.6
2023-04-14T13:35:35.247Z,10.6
2023-04-14T13:36:42.320Z,10.5
2023-04-14T13:37:48.941Z,10.5
2023-04-14T13:38:56.111Z,10.4
2023-04-14T13:40:03.209Z,10.4
2023-04-14T13:41:10.253Z,10.5
2023-04-14T13:42:17.372Z,10.5
2023-04-14T13:43:23.954Z,10.6
2023-04-14T13:44:31.076Z,10.6
2023-04-14T13:45:38.215Z,10.6
2023-04-14T13:46:45.351Z,10.6
2023-04-14T13:47:52.414Z,10.6
2023-04-14T13:48:59.009Z,10.6
2023-04-14T13:50:06.056Z,10.5
2023-04-14T13:51:13.161Z,10.5
2023-04-14T13:52:20.270Z,10.4
2023-04-14T13:53:27.362Z,10.4
2023-04-14T13:55:41.162Z,10.4
2023-04-14T13:56:48.171Z,10.4
2023-04-14T13:57:55.376Z,10.4
2023-04-14T13:59:02.513Z,10.4
2023-04-14T14:00:08.988Z,10.4
2023-04-14T14:01:16.095Z,10.4
2023-04-14T14:02:23.240Z,10.5
2023-04-14T14:03:32.218Z,10.4
2023-04-14T14:04:37.645Z,10.4
2023-04-14T14:05:43.994Z,10.4
2023-04-14T14:06:51.103Z,10.4
2023-04-14T14:07:58.206Z,10.4
2023-04-14T14:09:06.585Z,10.3
2023-04-14T14:10:12.469Z,10.3
2023-04-14T14:11:19.000Z,10.3
2023-04-14T14:12:26.105Z,10.3
2023-04-14T14:13:33.687Z,10.3
2023-04-14T14:14:40.373Z,10.3
2023-04-14T14:15:47.456Z,10.3
2023-04-14T14:18:01.116Z,10.4
2023-04-14T14:19:08.287Z,10.4
2023-04-14T14:20:15.306Z,10.4
2023-04-14T14:21:21.950Z,10.5
2023-04-14T14:22:29.027Z,10.6
2023-04-14T14:23:36.094Z,10.7
2023-04-14T14:24:43.221Z,10.7
2023-04-14T14:25:50.307Z,10.7
2023-04-14T14:26:57.451Z,10.8
2023-04-14T14:28:04.077Z,10.7
2023-04-14T14:29:11.121Z,10.7
2023-04-14T14:30:18.286Z,10.7
2023-04-14T14:31:25.426Z,10.7
2023-04-14T14:32:32.531Z,10.7
2023-04-14T14:33:39.049Z,10.7
2023-04-14T14:34:46.117Z,10.7
2023-04-14T14:35:53.223Z,10.7
2023-04-14T14:37:00.296Z,10.8
2023-04-14T14:38:06.943Z,10.8
2023-04-14T14:39:13.978Z,10.9
2023-04-14T14:40:21.165Z,10.9
2023-04-14T14:41:28.256Z,10.9
2023-04-14T14:42:35.336Z,10.9
2023-04-14T14:43:41.881Z,10.9
2023-04-14T14:44:49.036Z,10.9
2023-04-14T14:45:56.177Z,10.9
2023-04-14T14:47:03.397Z,11
2023-04-14T14:48:10.313Z,10.9
2023-04-14T14:49:16.955Z,10.9
2023-04-14T14:50:23.994Z,10.9
2023-04-14T14:51:31.142Z,10.9
2023-04-14T14:52:38.194Z,10.8
2023-04-14T14:53:45.346Z,10.8
2023-04-14T14:54:51.941Z,10.7
2023-04-14T14:55:59.028Z,10.8
2023-04-14T14:57:06.094Z,10.7
2023-04-14T14:59:20.332Z,10.7
2023-04-14T15:00:26.939Z,10.7
2023-04-14T15:01:34.022Z,10.6
2023-04-14T15:02:41.377Z,10.6
2023-04-14T15:03:48.331Z,10.6
2023-04-14T15:04:55.366Z,10.5
2023-04-14T15:06:01.897Z,10.5
2023-04-14T15:07:09.052Z,10.5
2023-04-14T15:08:16.209Z,10.4
2023-04-14T15:09:23.245Z,10.4
2023-04-14T15:10:30.410Z,10.4
2023-04-14T15:11:37.010Z,10.4
2023-04-14T15:12:44.030Z,10.4
2023-04-14T15:13:51.182Z,10.4
2023-04-14T15:14:58.279Z,10.4
2023-04-14T15:16:05.466Z,10.3
2023-04-14T15:17:12.561Z,10.3
2023-04-14T15:18:19.080Z,10.3
2023-04-14T15:19:26.174Z,10.3
2023-04-14T15:20:33.298Z,10.3
2023-04-14T15:21:40.359Z,10.3
2023-04-14T15:22:46.977Z,10.3
2023-04-14T15:23:54.053Z,10.3
2023-04-14T15:25:01.201Z,10.3
2023-04-14T15:26:08.330Z,10.3
2023-04-14T15:27:15.453Z,10.3
2023-04-14T15:28:21.969Z,10.2
2023-04-14T15:29:29.132Z,10.2
2023-04-14T15:30:36.278Z,10.2
2023-04-14T15:31:43.327Z,10.2
2023-04-14T15:32:50.475Z,10.2
2023-04-14T15:33:57.043Z,10.2
2023-04-14T15:35:04.080Z,10.1
2023-04-14T15:36:11.212Z,10.2
2023-04-14T15:37:18.323Z,10.1
2023-04-14T15:38:24.929Z,10.1
2023-04-14T15:39:32.045Z,10.1
2023-04-14T15:40:39.148Z,10.1
2023-04-14T15:41:46.285Z,10.1
2023-04-14T15:42:53.327Z,10.1
2023-04-14T15:44:00.156Z,10.1
2023-04-14T15:45:07.132Z,10.2
2023-04-14T15:46:14.878Z,10.2
2023-04-14T15:47:21.324Z,10.1
2023-04-14T15:48:28.368Z,10.1